Time;durP1;ratioP1;P1;durP2;ratioP2;P2;SDS_P1;SDS_P2;PMS_P1;PMS_P2;Temp;Humidity;BMP_temperature;BMP_pressure;BME280_temperature;BME280_humidity;BME280_pressure;Samples;Min_cycle;Max_cycle;Signal;HPM_P1;HPM_P2
2024/01/26 00:00:05;;;;;;;25.05;6.97;;;6.00;99.90;;;;;;4922164;29;20301;-73
2024/01/26 00:02:31;;;;;;;24.88;6.90;;;6.10;99.90;;;;;;4922093;29;20241;-73
2024/01/26 00:04:56;;;;;;;21.90;7.57;;;6.00;99.90;;;;;;4922237;29;20175;-73
2024/01/26 00:07:22;;;;;;;25.30;7.40;;;6.00;99.90;;;;;;4922345;29;20194;-73
2024/01/26 00:09:48;;;;;;;22.40;6.22;;;6.00;99.90;;;;;;4921813;29;20179;-73
2024/01/26 00:12:13;;;;;;;23.40;7.25;;;6.00;99.90;;;;;;4921845;29;20178;-73
2024/01/26 00:14:39;;;;;;;24.23;6.95;;;6.00;99.90;;;;;;4922087;29;20250;-73
2024/01/26 00:17:04;;;;;;;25.35;8.00;;;6.00;99.90;;;;;;4922262;29;20209;-73
2024/01/26 00:19:30;;;;;;;26.73;7.90;;;6.00;99.90;;;;;;4921735;29;20190;-73
2024/01/26 00:21:56;;;;;;;27.63;8.18;;;5.90;99.90;;;;;;4922536;29;20208;-74
2024/01/26 00:24:22;;;;;;;27.85;7.32;;;6.00;99.90;;;;;;4941537;29;20188;-74
2024/01/26 00:26:47;;;;;;;22.27;7.20;;;5.90;99.90;;;;;;4922626;29;20572;-74
2024/01/26 00:29:13;;;;;;;25.90;7.70;;;5.80;99.90;;;;;;4921784;29;20192;-74
2024/01/26 00:31:39;;;;;;;25.35;7.93;;;5.90;99.90;;;;;;4938893;29;20179;-74
2024/01/26 00:34:04;;;;;;;21.92;7.32;;;5.90;99.90;;;;;;4922353;29;20182;-74
2024/01/26 00:36:30;;;;;;;27.83;7.53;;;5.90;99.90;;;;;;4921660;29;20298;-73
2024/01/26 00:38:55;;;;;;;24.42;7.38;;;5.90;99.90;;;;;;4921668;29;20549;-73
2024/01/26 00:41:21;;;;;;;36.92;8.32;;;6.00;99.90;;;;;;4922299;29;20179;-73
2024/01/26 00:43:47;;;;;;;30.63;8.32;;;6.00;99.90;;;;;;4937628;29;20599;-73
2024/01/26 00:46:12;;;;;;;28.60;7.93;;;6.10;99.90;;;;;;4920719;29;20206;-73
2024/01/26 00:48:38;;;;;;;25.85;7.57;;;6.00;99.90;;;;;;4921262;29;20182;-73
2024/01/26 00:51:04;;;;;;;29.23;8.55;;;6.10;99.90;;;;;;4938132;29;20231;-73
2024/01/26 00:53:29;;;;;;;28.38;8.27;;;6.10;99.90;;;;;;4921974;29;20198;-74
2024/01/26 00:55:55;;;;;;;27.17;8.38;;;6.10;99.90;;;;;;4921124;29;20250;-74
2024/01/26 00:58:20;;;;;;;30.63;7.70;;;6.00;99.90;;;;;;4921303;29;20179;-74
2024/01/26 01:00:46;;;;;;;32.25;8.63;;;6.00;99.90;;;;;;4937976;29;20222;-74
2024/01/26 01:03:12;;;;;;;34.50;8.80;;;6.10;99.90;;;;;;4921629;29;20212;-73
2024/01/26 01:05:38;;;;;;;30.70;8.50;;;6.00;99.90;;;;;;4923114;29;20552;-74
2024/01/26 01:08:04;;;;;;;23.25;8.05;;;6.10;99.90;;;;;;4923789;29;20220;-74
2024/01/26 01:10:30;;;;;;;30.77;8.20;;;6.20;99.90;;;;;;4922609;29;20669;-74
2024/01/26 01:12:57;;;;;;;25.23;8.10;;;6.10;99.90;;;;;;4921616;29;20278;-74
2024/01/26 01:15:23;;;;;;;31.33;8.63;;;6.10;99.90;;;;;;4921462;29;20187;-74
2024/01/26 01:17:49;;;;;;;28.58;7.90;;;6.20;99.90;;;;;;4920649;29;20269;-74
2024/01/26 01:20:15;;;;;;;30.90;8.38;;;6.20;99.90;;;;;;4937598;29;20183;-74
2024/01/26 01:22:41;;;;;;;40.95;13.07;;;6.20;99.90;;;;;;4921447;29;20210;-74
2024/01/26 01:25:08;;;;;;;36.45;12.63;;;6.20;99.90;;;;;;4937607;29;20170;-74
2024/01/26 01:27:36;;;;;;;28.80;10.73;;;6.20;99.90;;;;;;4937511;29;20198;-74
2024/01/26 01:30:03;;;;;;;32.88;10.45;;;6.20;99.90;;;;;;4920747;29;20189;-74
2024/01/26 01:32:29;;;;;;;29.67;9.73;;;6.10;99.90;;;;;;4920793;29;20272;-74
2024/01/26 01:34:54;;;;;;;28.63;8.57;;;6.10;99.90;;;;;;4937303;29;20174;-73
2024/01/26 01:37:20;;;;;;;30.75;8.88;;;6.10;99.90;;;;;;4920261;29;20213;-73
2024/01/26 01:39:46;;;;;;;44.80;10.32;;;6.20;99.90;;;;;;4924271;29;20224;-74
2024/01/26 01:42:14;;;;;;;30.30;9.80;;;6.30;99.90;;;;;;4920488;29;20665;-74
2024/01/26 01:44:44;;;;;;;31.17;10.27;;;6.20;99.90;;;;;;4920190;29;20202;-74
2024/01/26 01:47:11;;;;;;;31.63;9.65;;;6.20;99.90;;;;;;4922296;29;20205;-74
2024/01/26 01:49:38;;;;;;;34.97;10.85;;;6.10;99.90;;;;;;4922252;29;20178;-74
2024/01/26 01:52:07;;;;;;;36.80;10.68;;;6.20;99.90;;;;;;4920083;29;20182;-74
2024/01/26 01:54:33;;;;;;;34.50;10.65;;;6.20;99.90;;;;;;4936993;29;20269;-74
2024/01/26 01:57:02;;;;;;;47.30;12.57;;;6.20;99.90;;;;;;4920446;29;20564;-73
2024/01/26 01:59:28;;;;;;;37.58;11.57;;;6.20;99.90;;;;;;4920944;29;20267;-74
2024/01/26 02:34:39;;;;;;;39.28;13.82;;;6.10;99.90;;;;;;4823227;29;20247;-75
2024/01/26 02:37:04;;;;;;;39.05;12.60;;;6.10;99.90;;;;;;4835549;29;20232;-75
2024/01/26 02:39:32;;;;;;;43.75;13.98;;;6.10;99.90;;;;;;4866335;29;20193;-75
2024/01/26 02:41:58;;;;;;;47.42;16.17;;;6.10;99.90;;;;;;4955953;29;20268;-75
2024/01/26 02:44:23;;;;;;;52.45;15.98;;;6.00;99.90;;;;;;4939200;29;20216;-75
2024/01/26 02:46:49;;;;;;;50.58;17.17;;;6.00;99.90;;;;;;4939319;29;20208;-75
2024/01/26 02:49:16;;;;;;;53.65;16.92;;;6.00;99.90;;;;;;4939388;29;20185;-75
2024/01/26 02:51:41;;;;;;;52.35;17.67;;;6.00;99.90;;;;;;4939129;29;20213;-74
2024/01/26 02:54:07;;;;;;;42.92;16.75;;;5.80;99.90;;;;;;4938296;29;20224;-74
2024/01/26 02:56:33;;;;;;;53.28;17.10;;;5.90;99.90;;;;;;4938779;29;20205;-74
2024/01/26 02:58:59;;;;;;;46.10;16.25;;;5.90;99.90;;;;;;4938201;29;20204;-74
2024/01/26 03:01:24;;;;;;;50.67;16.23;;;5.90;99.90;;;;;;4938096;29;20177;-74
2024/01/26 03:03:50;;;;;;;41.47;15.93;;;6.00;99.90;;;;;;4937966;29;20268;-73
2024/01/26 03:06:16;;;;;;;51.13;17.52;;;6.00;99.90;;;;;;4938623;29;20198;-73
2024/01/26 03:08:41;;;;;;;44.17;16.45;;;6.00;99.90;;;;;;4957800;28;20228;-73
2024/01/26 03:11:07;;;;;;;47.47;15.85;;;6.00;99.90;;;;;;4959113;29;20174;-73
2024/01/26 03:13:33;;;;;;;43.58;16.17;;;6.10;99.90;;;;;;4941926;29;20182;-74
2024/01/26 03:15:58;;;;;;;54.20;15.90;;;6.20;99.90;;;;;;4941992;29;20264;-74
2024/01/26 03:18:24;;;;;;;53.70;17.23;;;6.20;99.90;;;;;;4942184;29;20321;-74
2024/01/26 03:20:49;;;;;;;51.50;16.40;;;6.10;99.90;;;;;;4942202;29;20189;-74
2024/01/26 03:23:15;;;;;;;52.10;18.77;;;6.20;99.90;;;;;;4941615;29;20197;-74
2024/01/26 03:25:41;;;;;;;53.05;17.00;;;6.20;99.90;;;;;;4941831;29;20205;-74
2024/01/26 03:28:07;;;;;;;48.97;16.83;;;6.20;99.90;;;;;;4942073;29;20212;-74
2024/01/26 03:30:33;;;;;;;51.50;16.95;;;6.20;99.90;;;;;;4941871;29;20185;-74
2024/01/26 03:32:59;;;;;;;58.65;17.92;;;6.10;99.90;;;;;;4941638;29;20185;-74
2024/01/26 03:35:26;;;;;;;54.05;16.08;;;6.10;99.90;;;;;;4941447;29;20181;-74
2024/01/26 03:37:52;;;;;;;61.13;17.05;;;6.20;99.90;;;;;;4941353;29;20202;-74
2024/01/26 03:40:17;;;;;;;54.97;15.55;;;6.30;99.90;;;;;;4941480;29;20727;-74
2024/01/26 03:42:44;;;;;;;47.78;15.35;;;6.30;99.90;;;;;;4941376;29;20237;-73
2024/01/26 03:45:09;;;;;;;46.10;15.88;;;6.20;99.90;;;;;;4958512;29;20170;-73
2024/01/26 03:47:35;;;;;;;54.05;16.40;;;6.20;99.90;;;;;;4958421;29;20252;-73
2024/01/26 03:50:00;;;;;;;44.97;15.95;;;6.20;99.90;;;;;;4941574;29;20232;-73
2024/01/26 03:52:26;;;;;;;52.65;17.33;;;6.10;99.90;;;;;;4941547;29;20185;-74
2024/01/26 03:54:52;;;;;;;43.80;16.35;;;6.20;99.90;;;;;;4941609;29;20296;-74
2024/01/26 03:57:17;;;;;;;54.35;17.17;;;6.20;99.90;;;;;;4941272;29;20205;-74
2024/01/26 03:59:43;;;;;;;60.78;16.88;;;6.20;99.90;;;;;;4941416;29;20188;-74
2024/01/26 04:02:08;;;;;;;52.45;16.45;;;6.10;99.90;;;;;;4940950;29;20676;-74
2024/01/26 04:04:34;;;;;;;66.07;18.10;;;6.20;99.90;;;;;;4941084;29;20174;-74
2024/01/26 04:06:59;;;;;;;57.05;16.45;;;6.20;99.90;;;;;;4941367;29;20229;-74
2024/01/26 04:09:25;;;;;;;54.13;16.88;;;6.20;99.90;;;;;;4941084;29;20232;-74
2024/01/26 04:11:51;;;;;;;54.97;18.33;;;6.20;99.90;;;;;;4941219;29;20192;-74
2024/01/26 04:14:16;;;;;;;51.88;17.02;;;6.20;99.90;;;;;;4941440;29;20209;-74
2024/01/26 04:16:42;;;;;;;47.45;17.10;;;6.20;99.90;;;;;;4940771;29;20232;-74
2024/01/26 04:19:07;;;;;;;57.13;17.70;;;6.20;99.90;;;;;;4940875;29;20217;-74
2024/01/26 04:21:33;;;;;;;51.47;18.15;;;6.30;99.90;;;;;;4941752;29;20194;-74
2024/01/26 04:23:58;;;;;;;52.25;18.20;;;6.30;99.90;;;;;;4941089;29;20205;-74
2024/01/26 04:26:24;;;;;;;59.15;19.00;;;6.30;99.90;;;;;;4940941;29;20244;-74
2024/01/26 04:28:49;;;;;;;57.00;18.83;;;6.30;99.90;;;;;;4940894;29;20181;-74
2024/01/26 04:31:15;;;;;;;58.15;19.08;;;6.40;99.90;;;;;;4940561;29;20193;-74
2024/01/26 04:33:40;;;;;;;48.17;18.23;;;6.40;99.90;;;;;;4941057;29;20181;-73
2024/01/26 04:36:09;;;;;;;56.30;17.95;;;6.30;99.90;;;;;;4940407;29;20212;-73
2024/01/26 04:38:38;;;;;;;52.10;18.15;;;6.30;99.90;;;;;;4940903;29;20193;-73
2024/01/26 04:41:04;;;;;;;53.05;18.73;;;6.30;99.90;;;;;;4940377;29;20196;-73
2024/01/26 04:43:30;;;;;;;51.58;18.63;;;6.30;99.90;;;;;;4940452;29;20217;-73
2024/01/26 04:45:56;;;;;;;52.10;18.75;;;6.20;99.90;;;;;;4940330;29;20196;-73
2024/01/26 04:48:22;;;;;;;41.15;16.92;;;6.30;99.90;;;;;;4940533;29;20217;-72
2024/01/26 04:50:47;;;;;;;48.83;18.38;;;6.30;99.90;;;;;;4940316;29;20260;-72
2024/01/26 04:53:13;;;;;;;40.90;15.93;;;6.30;99.90;;;;;;4940820;29;20301;-72
2024/01/26 04:55:38;;;;;;;43.10;17.08;;;6.30;99.90;;;;;;4940789;29;20225;-72
2024/01/26 04:58:04;;;;;;;36.47;15.70;;;6.30;99.90;;;;;;4941088;29;20182;-72
2024/01/26 05:00:30;;;;;;;46.70;16.95;;;6.30;99.90;;;;;;4940004;29;20664;-72
2024/01/26 05:02:55;;;;;;;39.67;16.27;;;6.30;99.90;;;;;;4957674;29;20240;-72
2024/01/26 05:05:21;;;;;;;40.15;16.20;;;6.30;99.90;;;;;;4957194;29;20692;-72
2024/01/26 05:07:47;;;;;;;41.58;17.40;;;6.30;99.90;;;;;;4940849;29;20204;-73
2024/01/26 05:10:12;;;;;;;33.53;16.25;;;6.30;99.90;;;;;;4939811;29;20173;-73
2024/01/26 05:12:38;;;;;;;35.03;16.73;;;6.30;99.90;;;;;;4939735;29;20209;-73
2024/01/26 05:15:07;;;;;;;38.22;17.38;;;6.20;99.90;;;;;;4940049;29;20189;-73
2024/01/26 05:17:58;;;;;;;38.03;17.17;;;6.20;99.90;;;;;;4939457;29;20240;-73
2024/01/26 05:20:23;;;;;;;43.08;17.40;;;6.20;99.90;;;;;;4939719;29;20177;-74
2024/01/26 05:22:49;;;;;;;37.33;18.73;;;6.30;99.90;;;;;;4939681;29;20198;-74
2024/01/26 05:25:15;;;;;;;33.85;17.25;;;6.30;99.90;;;;;;4940423;29;20178;-74
2024/01/26 05:27:41;;;;;;;40.60;18.58;;;6.20;99.90;;;;;;4940062;29;20197;-74
2024/01/26 05:30:07;;;;;;;43.65;18.13;;;6.20;99.90;;;;;;4941073;29;20174;-73
2024/01/26 05:32:33;;;;;;;40.67;19.17;;;6.30;99.90;;;;;;4939407;29;20181;-73
2024/01/26 05:34:58;;;;;;;34.70;17.65;;;6.30;99.90;;;;;;4957344;29;20217;-73
2024/01/26 05:37:24;;;;;;;40.67;17.50;;;6.30;99.90;;;;;;4939085;29;20276;-73
2024/01/26 05:39:49;;;;;;;31.40;16.20;;;6.40;99.90;;;;;;4939314;29;20272;-73
2024/01/26 05:42:15;;;;;;;31.88;16.30;;;6.30;99.90;;;;;;4939436;29;20271;-73
2024/01/26 05:44:40;;;;;;;32.28;16.90;;;6.40;99.90;;;;;;4939383;29;20205;-73
2024/01/26 05:47:06;;;;;;;32.53;16.73;;;6.40;99.90;;;;;;4939361;29;20202;-75
2024/01/26 05:49:33;;;;;;;33.08;15.90;;;6.40;99.90;;;;;;4940150;29;20264;-73
2024/01/26 05:51:58;;;;;;;34.40;16.95;;;6.40;99.90;;;;;;4938975;29;20297;-73
2024/01/26 05:54:24;;;;;;;33.72;16.98;;;6.40;99.90;;;;;;4939413;29;20235;-74
2024/01/26 05:56:49;;;;;;;32.45;16.23;;;6.40;99.90;;;;;;4956363;29;20198;-75
2024/01/26 05:59:15;;;;;;;30.30;16.65;;;6.40;99.90;;;;;;4939575;29;20181;-75
2024/01/26 06:01:40;;;;;;;32.90;16.40;;;6.40;99.90;;;;;;4939488;29;20212;-75
2024/01/26 06:04:06;;;;;;;34.20;16.88;;;6.50;99.90;;;;;;4939981;29;20221;-74
2024/01/26 06:06:32;;;;;;;30.40;17.55;;;6.40;99.90;;;;;;4939032;29;20220;-73
2024/01/26 06:08:58;;;;;;;36.35;17.92;;;6.50;99.90;;;;;;4939388;29;20178;-75
2024/01/26 06:11:25;;;;;;;33.03;16.88;;;6.50;99.90;;;;;;4939041;29;20180;-73
2024/01/26 06:13:51;;;;;;;31.63;17.45;;;6.50;99.90;;;;;;4926862;29;20182;-73
2024/01/26 06:16:16;;;;;;;36.63;19.20;;;6.50;99.90;;;;;;4936530;29;20200;-73
2024/01/26 06:18:43;;;;;;;35.22;20.17;;;6.50;99.90;;;;;;4930031;29;20193;-75
2024/01/26 06:21:10;;;;;;;36.03;18.92;;;6.50;99.90;;;;;;4937265;29;20182;-74
2024/01/26 06:23:35;;;;;;;34.55;17.98;;;6.50;99.90;;;;;;4928873;29;20270;-74
2024/01/26 06:26:01;;;;;;;37.72;18.95;;;6.50;99.90;;;;;;4920749;29;20194;-74
2024/01/26 06:28:26;;;;;;;30.75;17.30;;;6.50;99.90;;;;;;4921421;29;20184;-75
2024/01/26 06:30:52;;;;;;;30.90;18.17;;;6.40;99.90;;;;;;4921607;29;20197;-73
2024/01/26 06:33:17;;;;;;;31.58;17.02;;;6.50;99.90;;;;;;4919460;29;20190;-73
2024/01/26 06:35:43;;;;;;;35.92;17.80;;;6.50;99.90;;;;;;4919595;29;20214;-73
2024/01/26 06:38:09;;;;;;;34.20;22.92;;;6.50;99.90;;;;;;4936413;29;20272;-73
2024/01/26 06:40:34;;;;;;;36.65;20.63;;;6.50;99.90;;;;;;4919571;29;20182;-73
2024/01/26 06:43:06;;;;;;;35.55;20.27;;;6.50;99.90;;;;;;4935053;29;20236;-74
2024/01/26 06:45:32;;;;;;;30.10;17.60;;;6.50;99.90;;;;;;4919313;29;20182;-73
2024/01/26 06:47:58;;;;;;;25.52;18.52;;;6.50;99.90;;;;;;4919192;29;20556;-73
2024/01/26 06:50:38;;;;;;;33.90;21.55;;;6.50;99.90;;;;;;4921902;29;20178;-74
2024/01/26 06:53:03;;;;;;;32.80;19.90;;;6.50;99.90;;;;;;4931758;29;20174;-73
2024/01/26 06:55:29;;;;;;;34.20;22.10;;;6.40;99.90;;;;;;4934890;29;20229;-74
2024/01/26 06:57:55;;;;;;;32.30;22.80;;;6.50;99.90;;;;;;4924398;29;20277;-74
2024/01/26 07:01:09;;;;;;;41.20;23.42;;;6.50;99.90;;;;;;4919416;29;20182;-73
2024/01/26 07:03:35;;;;;;;31.52;19.77;;;6.50;99.90;;;;;;4936297;29;20194;-74
2024/01/26 07:06:01;;;;;;;29.17;18.85;;;6.50;99.90;;;;;;4919792;29;20684;-77
2024/01/26 07:08:40;;;;;;;28.88;21.50;;;6.50;99.90;;;;;;4919747;29;20753;-75
2024/01/26 07:11:06;;;;;;;30.42;21.00;;;6.50;99.90;;;;;;4919823;29;20209;-74
2024/01/26 07:14:00;;;;;;;25.80;18.58;;;6.50;99.90;;;;;;4935507;29;20197;-72
2024/01/26 07:16:26;;;;;;;26.90;18.10;;;6.60;99.90;;;;;;4934172;29;20233;-74
2024/01/26 07:18:52;;;;;;;24.55;18.77;;;6.60;99.90;;;;;;4931319;29;20178;-73
2024/01/26 07:21:19;;;;;;;34.10;24.65;;;6.60;99.90;;;;;;4935426;29;20182;-74
2024/01/26 07:23:45;;;;;;;32.88;21.50;;;6.70;99.90;;;;;;4936292;29;20238;-74
2024/01/26 07:26:16;;;;;;;25.33;18.55;;;6.70;99.90;;;;;;4934940;29;20206;-73
2024/01/26 07:28:42;;;;;;;23.58;18.48;;;6.80;99.90;;;;;;4936045;29;20630;-73
2024/01/26 07:31:07;;;;;;;25.20;19.23;;;6.80;99.90;;;;;;4935467;29;20182;-74
2024/01/26 07:33:33;;;;;;;21.95;16.70;;;6.80;99.90;;;;;;4935116;29;20186;-74
2024/01/26 07:35:59;;;;;;;32.35;24.60;;;6.90;99.90;;;;;;4935425;29;20201;-73
2024/01/26 07:38:24;;;;;;;24.55;17.85;;;6.90;99.90;;;;;;4936079;29;20205;-73
2024/01/26 07:40:50;;;;;;;21.30;16.85;;;7.00;99.90;;;;;;4934900;29;20538;-74
2024/01/26 07:43:15;;;;;;;21.13;16.58;;;7.00;99.90;;;;;;4921636;29;20214;-73
2024/01/26 07:45:41;;;;;;;21.92;15.07;;;7.00;99.90;;;;;;4919774;29;20247;-72
2024/01/26 07:48:08;;;;;;;22.25;18.55;;;7.10;99.90;;;;;;4919124;29;20210;-74
2024/01/26 07:50:34;;;;;;;23.88;19.88;;;7.10;99.90;;;;;;4920898;29;20189;-75
2024/01/26 07:53:00;;;;;;;30.90;26.70;;;7.10;99.90;;;;;;4918921;29;20182;-74
2024/01/26 07:55:25;;;;;;;33.40;28.65;;;7.20;99.90;;;;;;4922912;29;20188;-74
2024/01/26 07:57:51;;;;;;;28.88;24.08;;;7.20;99.90;;;;;;4941034;29;20200;-74
2024/01/26 08:00:20;;;;;;;26.00;19.85;;;7.20;99.90;;;;;;4923115;29;20193;-74
2024/01/26 08:02:45;;;;;;;25.23;20.88;;;7.20;99.90;;;;;;4923167;29;20228;-74
2024/01/26 08:05:11;;;;;;;26.35;18.75;;;7.20;99.90;;;;;;4924127;29;20194;-75
2024/01/26 08:07:36;;;;;;;21.88;16.25;;;7.20;99.90;;;;;;4922068;29;20293;-73
2024/01/26 08:10:02;;;;;;;20.90;15.95;;;7.30;99.90;;;;;;4941553;29;20206;-74
2024/01/26 08:12:28;;;;;;;25.52;18.55;;;7.30;99.90;;;;;;4923259;29;20613;-74
2024/01/26 08:14:54;;;;;;;23.90;17.65;;;7.30;99.90;;;;;;4939035;29;20181;-74
2024/01/26 08:17:20;;;;;;;24.73;17.45;;;7.30;99.90;;;;;;4921878;29;20202;-74
2024/01/26 08:19:45;;;;;;;22.08;16.77;;;7.40;99.90;;;;;;4922287;29;20272;-74
2024/01/26 08:22:11;;;;;;;23.80;16.48;;;7.40;99.90;;;;;;4938933;29;20206;-74
2024/01/26 08:24:36;;;;;;;20.08;15.88;;;7.40;99.90;;;;;;4923197;29;20210;-74
2024/01/26 08:27:02;;;;;;;21.00;15.80;;;7.40;99.90;;;;;;4922399;29;20752;-74
2024/01/26 08:29:28;;;;;;;20.40;14.95;;;7.50;99.90;;;;;;4923423;29;20182;-74
2024/01/26 08:31:53;;;;;;;21.58;15.35;;;7.50;99.90;;;;;;4922179;29;20547;-75
2024/01/26 08:34:36;;;;;;;21.20;12.85;;;7.50;99.90;;;;;;4922825;29;20178;-74
2024/01/26 08:37:05;;;;;;;20.15;13.73;;;7.50;99.90;;;;;;4922460;29;20229;-73
2024/01/26 08:39:48;;;;;;;19.60;13.65;;;7.50;99.90;;;;;;4921503;29;20609;-73
2024/01/26 08:42:14;;;;;;;17.15;13.50;;;7.60;99.90;;;;;;4922762;29;20673;-74
2024/01/26 08:44:39;;;;;;;17.73;11.93;;;7.60;99.90;;;;;;4921450;29;20237;-74
2024/01/26 08:47:05;;;;;;;17.10;13.05;;;7.60;99.90;;;;;;4921794;29;20198;-74
2024/01/26 08:49:31;;;;;;;20.13;14.93;;;7.60;99.90;;;;;;4923170;29;20241;-74
2024/01/26 08:51:58;;;;;;;16.33;12.60;;;7.60;99.90;;;;;;4922333;29;20190;-73
2024/01/26 08:54:24;;;;;;;16.55;12.43;;;7.70;99.90;;;;;;4922725;29;20182;-74
2024/01/26 08:56:50;;;;;;;17.35;13.30;;;7.80;99.90;;;;;;4938772;29;20264;-74
2024/01/26 08:59:16;;;;;;;14.63;11.27;;;7.80;99.90;;;;;;4921168;29;20189;-74
2024/01/26 09:01:41;;;;;;;15.50;11.60;;;7.80;99.90;;;;;;4921528;29;20167;-74
2024/01/26 09:04:08;;;;;;;12.50;9.93;;;7.90;99.90;;;;;;4921597;29;20175;-73
2024/01/26 09:06:34;;;;;;;9.60;8.70;;;7.80;99.90;;;;;;4920998;29;20194;-74
2024/01/26 09:09:00;;;;;;;10.88;8.73;;;7.90;99.90;;;;;;4920940;29;20197;-73
2024/01/26 09:11:26;;;;;;;9.35;8.30;;;7.80;99.90;;;;;;4920836;29;20536;-74
2024/01/26 09:13:52;;;;;;;10.98;9.00;;;7.90;99.90;;;;;;4938495;29;20178;-74
2024/01/26 09:16:17;;;;;;;9.88;8.05;;;7.90;99.90;;;;;;4923693;29;20201;-75
2024/01/26 09:18:43;;;;;;;8.90;8.00;;;7.90;99.90;;;;;;4923773;29;20201;-75
2024/01/26 09:21:12;;;;;;;8.90;8.00;;;8.00;99.90;;;;;;4921231;29;20182;-73
2024/01/26 09:23:39;;;;;;;9.82;8.45;;;8.00;99.90;;;;;;4921264;29;20209;-74
2024/01/26 09:26:04;;;;;;;10.90;8.00;;;8.10;99.90;;;;;;4921562;29;20206;-74
2024/01/26 09:28:30;;;;;;;11.85;10.52;;;8.10;99.90;;;;;;4921678;29;20186;-74
2024/01/26 09:31:08;;;;;;;14.18;11.13;;;8.20;99.90;;;;;;4921879;29;20254;-75
2024/01/26 09:33:34;;;;;;;13.23;10.65;;;8.20;99.90;;;;;;4921360;29;20656;-74
2024/01/26 09:36:00;;;;;;;13.65;10.15;;;8.20;99.90;;;;;;4920370;29;20574;-74
2024/01/26 09:38:25;;;;;;;10.90;9.15;;;8.20;99.90;;;;;;4937625;29;20197;-74
2024/01/26 09:40:51;;;;;;;10.27;8.90;;;8.20;99.90;;;;;;4920650;29;20182;-74
2024/01/26 09:43:17;;;;;;;11.02;9.93;;;8.30;99.90;;;;;;4920725;29;20210;-74
2024/01/26 09:45:49;;;;;;;9.85;8.85;;;8.30;99.90;;;;;;4920993;29;20182;-74
2024/01/26 09:48:17;;;;;;;11.75;8.93;;;8.30;99.90;;;;;;4921051;29;20163;-74
2024/01/26 09:50:50;;;;;;;9.13;8.27;;;8.30;99.90;;;;;;4920628;29;20229;-74
2024/01/26 09:53:17;;;;;;;8.90;7.32;;;8.30;99.90;;;;;;4920740;29;20261;-75
2024/01/26 09:55:45;;;;;;;7.88;6.40;;;8.30;99.90;;;;;;4937621;29;20194;-74
2024/01/26 09:58:11;;;;;;;8.85;7.57;;;8.30;99.90;;;;;;4920778;29;20194;-74
2024/01/26 10:00:36;;;;;;;6.38;5.78;;;8.40;99.90;;;;;;4921670;29;20218;-74
2024/01/26 10:03:02;;;;;;;5.30;4.57;;;8.40;99.90;;;;;;4920620;29;20237;-76
2024/01/26 10:05:28;;;;;;;4.28;3.97;;;8.50;99.90;;;;;;4920972;29;20277;-74
2024/01/26 10:07:53;;;;;;;5.10;4.05;;;8.50;99.90;;;;;;4920469;29;20201;-74
2024/01/26 10:10:19;;;;;;;3.80;3.50;;;8.60;99.90;;;;;;4920205;29;20226;-74
2024/01/26 10:12:45;;;;;;;3.75;3.45;;;8.70;99.90;;;;;;4919976;29;20182;-74
2024/01/26 10:15:11;;;;;;;3.92;3.50;;;8.70;99.90;;;;;;4920093;29;20186;-74
2024/01/26 10:17:38;;;;;;;3.88;3.50;;;8.80;99.90;;;;;;4919823;29;20289;-74
2024/01/26 10:20:08;;;;;;;3.78;3.47;;;8.80;99.90;;;;;;4920251;29;20266;-74
2024/01/26 10:22:36;;;;;;;4.90;4.40;;;8.80;99.90;;;;;;4919987;29;20209;-74
2024/01/26 10:25:10;;;;;;;5.50;5.00;;;8.80;99.90;;;;;;4919620;29;20182;-74
2024/01/26 10:27:36;;;;;;;5.97;5.47;;;8.80;99.90;;;;;;4920451;29;20201;-74
2024/01/26 10:30:02;;;;;;;4.50;4.10;;;8.80;99.90;;;;;;4920046;29;20241;-74
2024/01/26 10:32:29;;;;;;;4.35;3.75;;;8.80;99.90;;;;;;4919605;29;20186;-74
2024/01/26 10:35:00;;;;;;;3.95;3.30;;;8.80;99.90;;;;;;4919963;29;20190;-74
2024/01/26 10:37:28;;;;;;;4.78;3.47;;;8.80;99.90;;;;;;4919879;29;20265;-74
2024/01/26 10:39:56;;;;;;;3.45;3.13;;;8.80;99.90;;;;;;4919732;29;20189;-74
2024/01/26 10:42:22;;;;;;;3.75;3.45;;;8.80;99.90;;;;;;4936550;29;20290;-74
2024/01/26 10:44:49;;;;;;;4.30;3.92;;;8.80;99.90;;;;;;4919388;29;20230;-74
2024/01/26 10:47:16;;;;;;;4.43;3.35;;;8.90;99.90;;;;;;4919794;29;20285;-75
2024/01/26 10:49:55;;;;;;;3.67;3.33;;;8.90;99.90;;;;;;4919940;29;20186;-74
2024/01/26 10:52:22;;;;;;;4.25;3.90;;;9.10;99.90;;;;;;4920951;29;20193;-79
2024/01/26 10:54:49;;;;;;;4.78;4.38;;;9.20;99.90;;;;;;4920491;29;20186;-79
2024/01/26 10:57:22;;;;;;;3.90;3.47;;;9.50;99.90;;;;;;4920195;29;20209;-78
2024/01/26 10:59:48;;;;;;;3.53;3.22;;;9.50;99.90;;;;;;4920810;29;20179;-81
2024/01/26 11:02:35;;;;;;;3.70;3.40;;;9.50;99.90;;;;;;4920476;29;20202;-78
2024/01/26 11:05:22;;;;;;;3.20;3.00;;;9.50;99.90;;;;;;4919642;29;20214;-79
2024/01/26 11:07:48;;;;;;;3.45;3.25;;;9.40;99.90;;;;;;4920044;29;20198;-79
2024/01/26 11:10:20;;;;;;;3.17;2.97;;;9.40;99.90;;;;;;4920885;29;20306;-81
2024/01/26 11:12:46;;;;;;;3.20;3.00;;;9.30;99.90;;;;;;4919478;29;20167;-79
2024/01/26 11:15:16;;;;;;;3.63;3.33;;;9.20;99.90;;;;;;4919816;29;20189;-79
2024/01/26 11:17:44;;;;;;;3.50;3.15;;;9.20;99.90;;;;;;4919627;29;20744;-81
2024/01/26 11:20:18;;;;;;;3.35;3.05;;;9.10;99.90;;;;;;4920004;29;20186;-79
2024/01/26 11:26:17;;;;;;;4.30;3.95;;;8.80;99.90;;;;;;4936653;29;20296;-79
2024/01/26 11:28:45;;;;;;;4.95;4.40;;;8.80;99.90;;;;;;4937432;29;20170;-79
2024/01/26 11:31:12;;;;;;;4.68;3.70;;;8.80;99.90;;;;;;4923429;29;20182;-78
2024/01/26 11:33:39;;;;;;;3.88;3.45;;;8.80;99.90;;;;;;4940115;29;20189;-81
2024/01/26 11:36:31;;;;;;;3.72;3.00;;;8.80;99.90;;;;;;4924173;29;20202;-81
2024/01/26 11:39:25;;;;;;;11.75;7.45;;;8.80;99.90;;;;;;4923149;29;20234;-81
2024/01/26 11:41:53;;;;;;;2.83;2.63;;;8.90;99.90;;;;;;4922987;29;20175;-79
2024/01/26 11:44:22;;;;;;;3.15;2.85;;;8.90;99.90;;;;;;4923814;29;20179;-75
2024/01/26 11:46:55;;;;;;;3.33;3.05;;;8.90;99.90;;;;;;4922658;29;20685;-75
2024/01/26 11:49:21;;;;;;;4.82;4.32;;;9.00;99.90;;;;;;4924353;29;20192;-77
2024/01/26 11:51:48;;;;;;;2.92;2.78;;;9.10;99.90;;;;;;4923323;29;20705;-75
2024/01/26 11:54:15;;;;;;;2.50;2.30;;;9.10;99.90;;;;;;4923795;29;20174;-75
2024/01/26 11:56:41;;;;;;;2.53;2.42;;;9.10;99.90;;;;;;4922515;29;20210;-74
2024/01/26 11:59:37;;;;;;;2.72;2.53;;;9.10;99.90;;;;;;4925547;29;20174;-76
2024/01/26 12:02:03;;;;;;;2.70;2.50;;;9.10;99.90;;;;;;4924399;29;20233;-74
2024/01/26 12:04:28;;;;;;;2.75;2.33;;;9.00;99.90;;;;;;4923396;29;20178;-74
2024/01/26 12:07:08;;;;;;;2.17;2.08;;;9.00;99.90;;;;;;4922335;29;20195;-74
2024/01/26 12:09:34;;;;;;;2.13;2.03;;;9.00;99.90;;;;;;4939105;29;20163;-74
2024/01/26 12:12:00;;;;;;;2.10;2.00;;;9.00;99.90;;;;;;4922252;29;20193;-76
2024/01/26 12:14:27;;;;;;;2.17;2.00;;;8.90;99.90;;;;;;4923683;29;20195;-74
2024/01/26 12:16:54;;;;;;;2.10;2.00;;;9.00;99.90;;;;;;4940789;29;20257;-76
2024/01/26 12:19:57;;;;;;;1.90;1.80;;;8.90;99.90;;;;;;4924020;29;20193;-77
2024/01/26 12:22:32;;;;;;;2.08;1.98;;;9.00;99.90;;;;;;4940174;29;20194;-75
2024/01/26 12:25:02;;;;;;;2.00;1.90;;;9.00;99.90;;;;;;4921696;29;20261;-74
2024/01/26 12:27:31;;;;;;;2.30;2.10;;;9.00;99.90;;;;;;4921827;29;20194;-74
2024/01/26 12:30:05;;;;;;;3.85;1.73;;;9.00;99.90;;;;;;4921670;29;20178;-74
2024/01/26 12:32:31;;;;;;;3.60;2.30;;;9.00;99.90;;;;;;4922873;29;20544;-76
2024/01/26 12:34:58;;;;;;;2.20;2.10;;;9.00;99.90;;;;;;4923089;29;20208;-74
2024/01/26 12:37:24;;;;;;;2.08;1.98;;;9.00;99.90;;;;;;4922727;29;20218;-76
2024/01/26 12:39:49;;;;;;;1.83;1.73;;;9.00;99.90;;;;;;4922106;29;20630;-74
2024/01/26 12:42:15;;;;;;;1.98;1.70;;;9.10;99.90;;;;;;4921984;29;20265;-74
2024/01/26 12:45:13;;;;;;;1.85;1.75;;;9.10;99.90;;;;;;4922565;29;20239;-77
2024/01/26 12:47:38;;;;;;;1.98;1.80;;;9.10;99.90;;;;;;4921731;29;20213;-75
2024/01/26 12:50:05;;;;;;;2.53;1.90;;;9.20;99.90;;;;;;4922292;29;20187;-75
2024/01/26 12:52:30;;;;;;;1.88;1.75;;;9.30;99.90;;;;;;4923061;29;20209;-75
2024/01/26 12:54:56;;;;;;;1.60;1.50;;;9.30;99.90;;;;;;4922010;29;20214;-74
2024/01/26 12:57:22;;;;;;;1.70;1.60;;;9.40;99.90;;;;;;4921206;29;20209;-75
2024/01/26 13:03:33;;;;;;;1.50;1.40;;;9.50;99.90;;;;;;4938488;29;20234;-74
2024/01/26 13:05:59;;;;;;;2.60;1.83;;;9.50;99.90;;;;;;4937925;29;20205;-75
2024/01/26 13:08:24;;;;;;;1.80;1.70;;;9.50;99.90;;;;;;4921278;29;20174;-75
2024/01/26 13:10:55;;;;;;;1.60;1.50;;;9.40;99.90;;;;;;4921921;29;20189;-76
2024/01/26 13:13:30;;;;;;;1.58;1.48;;;9.40;99.90;;;;;;4938383;29;20163;-76
2024/01/26 13:15:56;;;;;;;1.65;1.50;;;9.40;99.90;;;;;;4920700;29;20296;-74
2024/01/26 13:18:23;;;;;;;2.30;1.70;;;9.40;99.90;;;;;;4920998;29;20201;-75
2024/01/26 13:20:48;;;;;;;2.05;1.95;;;9.40;99.90;;;;;;4921547;29;20234;-75
2024/01/26 13:23:39;;;;;;;2.60;1.83;;;9.40;99.90;;;;;;4921283;29;20676;-74